sensor_id;sensor_type;location;lat;lon;timestamp;P1;durP1;ratioP1;P2;durP2;ratioP2
11267;SDS011;72685;47.474;9.416;2024-01-30T00:02:08;8.33;;;5.77;;
11267;SDS011;72685;47.474;9.416;2024-01-30T00:04:33;6.57;;;5.27;;
11267;SDS011;72685;47.474;9.416;2024-01-30T00:06:59;7.03;;;5.63;;
11267;SDS011;72685;47.474;9.416;2024-01-30T00:09:24;7.27;;;5.33;;
11267;SDS011;72685;47.474;9.416;2024-01-30T00:11:49;9.73;;;5.20;;
11267;SDS011;72685;47.474;9.416;2024-01-30T00:14:15;7.33;;;4.73;;
11267;SDS011;72685;47.474;9.416;2024-01-30T00:16:40;7.87;;;5.37;;
11267;SDS011;72685;47.474;9.416;2024-01-30T00:19:06;6.23;;;4.87;;
11267;SDS011;72685;47.474;9.416;2024-01-30T00:21:33;8.17;;;4.70;;
11267;SDS011;72685;47.474;9.416;2024-01-30T00:23:59;4.83;;;4.10;;
11267;SDS011;72685;47.474;9.416;2024-01-30T00:26:24;7.80;;;4.77;;
11267;SDS011;72685;47.474;9.416;2024-01-30T00:28:49;8.03;;;5.20;;
11267;SDS011;72685;47.474;9.416;2024-01-30T00:31:15;7.10;;;4.90;;
11267;SDS011;72685;47.474;9.416;2024-01-30T00:33:41;7.40;;;5.67;;
11267;SDS011;72685;47.474;9.416;2024-01-30T00:36:07;8.60;;;5.27;;
11267;SDS011;72685;47.474;9.416;2024-01-30T00:38:33;7.13;;;5.00;;
11267;SDS011;72685;47.474;9.416;2024-01-30T00:40:58;8.90;;;5.33;;
11267;SDS011;72685;47.474;9.416;2024-01-30T00:43:24;6.83;;;5.13;;
11267;SDS011;72685;47.474;9.416;2024-01-30T00:45:52;8.73;;;5.60;;
11267;SDS011;72685;47.474;9.416;2024-01-30T00:48:17;9.60;;;6.67;;
11267;SDS011;72685;47.474;9.416;2024-01-30T00:50:43;8.77;;;6.40;;
11267;SDS011;72685;47.474;9.416;2024-01-30T00:53:08;9.77;;;7.33;;
11267;SDS011;72685;47.474;9.416;2024-01-30T00:55:34;10.80;;;6.60;;
11267;SDS011;72685;47.474;9.416;2024-01-30T00:58:00;10.00;;;7.17;;
11267;SDS011;72685;47.474;9.416;2024-01-30T01:00:25;9.73;;;5.80;;
11267;SDS011;72685;47.474;9.416;2024-01-30T01:02:54;10.90;;;6.90;;
11267;SDS011;72685;47.474;9.416;2024-01-30T01:05:20;10.80;;;7.07;;
11267;SDS011;72685;47.474;9.416;2024-01-30T01:07:46;10.70;;;6.70;;
11267;SDS011;72685;47.474;9.416;2024-01-30T01:10:13;11.90;;;6.33;;
11267;SDS011;72685;47.474;9.416;2024-01-30T01:12:39;9.40;;;6.73;;
11267;SDS011;72685;47.474;9.416;2024-01-30T01:15:05;8.87;;;6.37;;
11267;SDS011;72685;47.474;9.416;2024-01-30T01:17:31;8.27;;;5.90;;
11267;SDS011;72685;47.474;9.416;2024-01-30T01:19:56;7.20;;;5.73;;
11267;SDS011;72685;47.474;9.416;2024-01-30T01:22:22;7.67;;;5.43;;
11267;SDS011;72685;47.474;9.416;2024-01-30T01:24:47;8.27;;;6.00;;
11267;SDS011;72685;47.474;9.416;2024-01-30T01:27:13;7.97;;;6.20;;
11267;SDS011;72685;47.474;9.416;2024-01-30T01:29:38;6.07;;;4.97;;
11267;SDS011;72685;47.474;9.416;2024-01-30T01:32:04;7.20;;;4.90;;
11267;SDS011;72685;47.474;9.416;2024-01-30T01:34:29;6.37;;;5.33;;
11267;SDS011;72685;47.474;9.416;2024-01-30T01:36:55;8.47;;;5.60;;
11267;SDS011;72685;47.474;9.416;2024-01-30T01:39:20;8.50;;;5.90;;
11267;SDS011;72685;47.474;9.416;2024-01-30T01:41:47;7.57;;;4.33;;
11267;SDS011;72685;47.474;9.416;2024-01-30T01:44:13;7.37;;;5.37;;
11267;SDS011;72685;47.474;9.416;2024-01-30T01:46:38;6.57;;;4.47;;
11267;SDS011;72685;47.474;9.416;2024-01-30T01:49:04;6.30;;;4.80;;
11267;SDS011;72685;47.474;9.416;2024-01-30T01:51:31;8.50;;;4.70;;
11267;SDS011;72685;47.474;9.416;2024-01-30T01:53:59;5.77;;;4.10;;
11267;SDS011;72685;47.474;9.416;2024-01-30T01:56:28;5.60;;;4.57;;
11267;SDS011;72685;47.474;9.416;2024-01-30T01:58:54;6.23;;;4.93;;
11267;SDS011;72685;47.474;9.416;2024-01-30T02:01:23;7.97;;;5.00;;
11267;SDS011;72685;47.474;9.416;2024-01-30T02:03:50;6.87;;;4.20;;
11267;SDS011;72685;47.474;9.416;2024-01-30T02:06:15;5.10;;;4.00;;
11267;SDS011;72685;47.474;9.416;2024-01-30T02:08:41;10.17;;;4.23;;
11267;SDS011;72685;47.474;9.416;2024-01-30T02:11:07;10.33;;;4.63;;
11267;SDS011;72685;47.474;9.416;2024-01-30T02:13:33;5.30;;;4.57;;
11267;SDS011;72685;47.474;9.416;2024-01-30T02:15:59;4.60;;;4.00;;
11267;SDS011;72685;47.474;9.416;2024-01-30T02:18:25;6.13;;;4.77;;
11267;SDS011;72685;47.474;9.416;2024-01-30T02:20:50;8.27;;;4.93;;
11267;SDS011;72685;47.474;9.416;2024-01-30T02:23:19;6.20;;;5.03;;
11267;SDS011;72685;47.474;9.416;2024-01-30T02:25:45;5.77;;;4.87;;
11267;SDS011;72685;47.474;9.416;2024-01-30T02:28:11;5.27;;;4.70;;
11267;SDS011;72685;47.474;9.416;2024-01-30T02:30:37;4.70;;;4.20;;
11267;SDS011;72685;47.474;9.416;2024-01-30T02:33:07;4.70;;;4.17;;
11267;SDS011;72685;47.474;9.416;2024-01-30T02:35:33;6.67;;;5.07;;
11267;SDS011;72685;47.474;9.416;2024-01-30T02:37:59;9.00;;;6.07;;
11267;SDS011;72685;47.474;9.416;2024-01-30T02:40:24;6.57;;;4.80;;
11267;SDS011;72685;47.474;9.416;2024-01-30T02:42:50;13.60;;;5.03;;
11267;SDS011;72685;47.474;9.416;2024-01-30T02:45:15;5.80;;;5.10;;
11267;SDS011;72685;47.474;9.416;2024-01-30T02:47:40;8.67;;;5.23;;
11267;SDS011;72685;47.474;9.416;2024-01-30T02:50:06;8.37;;;5.37;;
11267;SDS011;72685;47.474;9.416;2024-01-30T02:52:32;6.80;;;5.03;;
11267;SDS011;72685;47.474;9.416;2024-01-30T02:54:57;6.40;;;5.27;;
11267;SDS011;72685;47.474;9.416;2024-01-30T02:57:23;8.83;;;4.80;;
11267;SDS011;72685;47.474;9.416;2024-01-30T02:59:48;4.93;;;3.80;;
11267;SDS011;72685;47.474;9.416;2024-01-30T03:02:13;4.90;;;4.20;;
11267;SDS011;72685;47.474;9.416;2024-01-30T03:04:40;4.40;;;3.60;;
11267;SDS011;72685;47.474;9.416;2024-01-30T03:07:06;5.40;;;3.90;;
11267;SDS011;72685;47.474;9.416;2024-01-30T03:09:31;4.00;;;3.70;;
11267;SDS011;72685;47.474;9.416;2024-01-30T03:11:57;6.47;;;4.63;;
11267;SDS011;72685;47.474;9.416;2024-01-30T03:14:22;5.00;;;3.60;;
11267;SDS011;72685;47.474;9.416;2024-01-30T03:16:48;7.00;;;4.50;;
11267;SDS011;72685;47.474;9.416;2024-01-30T03:19:13;6.93;;;4.67;;
11267;SDS011;72685;47.474;9.416;2024-01-30T03:21:38;4.67;;;4.10;;
11267;SDS011;72685;47.474;9.416;2024-01-30T03:24:04;4.90;;;4.33;;
11267;SDS011;72685;47.474;9.416;2024-01-30T03:26:29;5.90;;;4.67;;
11267;SDS011;72685;47.474;9.416;2024-01-30T03:28:55;4.30;;;3.80;;
11267;SDS011;72685;47.474;9.416;2024-01-30T03:31:20;4.20;;;3.77;;
11267;SDS011;72685;47.474;9.416;2024-01-30T03:33:46;5.30;;;4.23;;
11267;SDS011;72685;47.474;9.416;2024-01-30T03:36:11;5.50;;;3.97;;
11267;SDS011;72685;47.474;9.416;2024-01-30T03:38:36;5.03;;;4.03;;
11267;SDS011;72685;47.474;9.416;2024-01-30T03:41:02;4.80;;;4.30;;
11267;SDS011;72685;47.474;9.416;2024-01-30T03:43:27;5.03;;;4.53;;
11267;SDS011;72685;47.474;9.416;2024-01-30T03:45:53;6.77;;;4.83;;
11267;SDS011;72685;47.474;9.416;2024-01-30T03:48:18;7.50;;;5.10;;
11267;SDS011;72685;47.474;9.416;2024-01-30T03:50:44;5.73;;;4.77;;
11267;SDS011;72685;47.474;9.416;2024-01-30T03:53:10;8.60;;;3.83;;
11267;SDS011;72685;47.474;9.416;2024-01-30T03:55:35;4.40;;;4.00;;
11267;SDS011;72685;47.474;9.416;2024-01-30T03:58:01;3.97;;;3.53;;
11267;SDS011;72685;47.474;9.416;2024-01-30T04:00:26;5.20;;;3.30;;
11267;SDS011;72685;47.474;9.416;2024-01-30T04:02:52;3.43;;;3.10;;
11267;SDS011;72685;47.474;9.416;2024-01-30T04:05:17;9.17;;;3.23;;
11267;SDS011;72685;47.474;9.416;2024-01-30T04:07:42;3.57;;;2.80;;
11267;SDS011;72685;47.474;9.416;2024-01-30T04:10:09;3.33;;;3.00;;
11267;SDS011;72685;47.474;9.416;2024-01-30T04:12:35;5.37;;;4.07;;
11267;SDS011;72685;47.474;9.416;2024-01-30T04:15:00;3.07;;;2.87;;
11267;SDS011;72685;47.474;9.416;2024-01-30T04:17:26;5.50;;;3.17;;
11267;SDS011;72685;47.474;9.416;2024-01-30T04:19:53;4.97;;;3.07;;
11267;SDS011;72685;47.474;9.416;2024-01-30T04:22:18;3.83;;;3.50;;
11267;SDS011;72685;47.474;9.416;2024-01-30T04:24:44;4.03;;;3.60;;
11267;SDS011;72685;47.474;9.416;2024-01-30T04:27:09;3.97;;;3.57;;
11267;SDS011;72685;47.474;9.416;2024-01-30T04:29:34;4.33;;;3.33;;
11267;SDS011;72685;47.474;9.416;2024-01-30T04:32:00;5.77;;;3.80;;
11267;SDS011;72685;47.474;9.416;2024-01-30T04:34:25;4.70;;;4.30;;
11267;SDS011;72685;47.474;9.416;2024-01-30T04:36:50;5.20;;;4.50;;
11267;SDS011;72685;47.474;9.416;2024-01-30T04:39:16;6.10;;;4.90;;
11267;SDS011;72685;47.474;9.416;2024-01-30T04:41:41;5.90;;;4.87;;
11267;SDS011;72685;47.474;9.416;2024-01-30T04:44:06;6.93;;;5.07;;
11267;SDS011;72685;47.474;9.416;2024-01-30T04:46:32;6.47;;;4.93;;
11267;SDS011;72685;47.474;9.416;2024-01-30T04:48:59;7.30;;;5.10;;
11267;SDS011;72685;47.474;9.416;2024-01-30T04:51:25;6.93;;;4.70;;
11267;SDS011;72685;47.474;9.416;2024-01-30T04:53:50;6.03;;;5.13;;
11267;SDS011;72685;47.474;9.416;2024-01-30T04:56:15;5.27;;;4.77;;
11267;SDS011;72685;47.474;9.416;2024-01-30T04:58:41;5.43;;;4.87;;
11267;SDS011;72685;47.474;9.416;2024-01-30T05:01:06;6.90;;;5.33;;
11267;SDS011;72685;47.474;9.416;2024-01-30T05:03:34;7.10;;;5.40;;
11267;SDS011;72685;47.474;9.416;2024-01-30T05:06:00;7.27;;;5.23;;
11267;SDS011;72685;47.474;9.416;2024-01-30T05:08:25;5.70;;;4.87;;
11267;SDS011;72685;47.474;9.416;2024-01-30T05:10:51;8.20;;;5.77;;
11267;SDS011;72685;47.474;9.416;2024-01-30T05:13:16;7.83;;;5.30;;
11267;SDS011;72685;47.474;9.416;2024-01-30T05:15:41;8.47;;;6.20;;
11267;SDS011;72685;47.474;9.416;2024-01-30T05:18:07;7.27;;;5.27;;
11267;SDS011;72685;47.474;9.416;2024-01-30T05:20:32;6.33;;;4.77;;
11267;SDS011;72685;47.474;9.416;2024-01-30T05:22:57;5.90;;;5.17;;
11267;SDS011;72685;47.474;9.416;2024-01-30T05:25:23;6.73;;;4.67;;
11267;SDS011;72685;47.474;9.416;2024-01-30T05:27:48;7.73;;;4.83;;
11267;SDS011;72685;47.474;9.416;2024-01-30T05:30:14;7.20;;;5.20;;
11267;SDS011;72685;47.474;9.416;2024-01-30T05:32:40;6.47;;;4.77;;
11267;SDS011;72685;47.474;9.416;2024-01-30T05:35:05;5.83;;;5.00;;
11267;SDS011;72685;47.474;9.416;2024-01-30T05:37:32;5.80;;;4.93;;
11267;SDS011;72685;47.474;9.416;2024-01-30T05:39:58;5.67;;;4.80;;
11267;SDS011;72685;47.474;9.416;2024-01-30T05:42:23;6.03;;;4.87;;
11267;SDS011;72685;47.474;9.416;2024-01-30T05:44:49;4.60;;;4.07;;
11267;SDS011;72685;47.474;9.416;2024-01-30T05:47:15;4.90;;;4.20;;
11267;SDS011;72685;47.474;9.416;2024-01-30T05:49:40;4.07;;;3.20;;
11267;SDS011;72685;47.474;9.416;2024-01-30T05:52:06;3.83;;;3.40;;
11267;SDS011;72685;47.474;9.416;2024-01-30T05:54:31;3.30;;;3.10;;
11267;SDS011;72685;47.474;9.416;2024-01-30T05:56:57;4.10;;;3.50;;
11267;SDS011;72685;47.474;9.416;2024-01-30T05:59:22;3.57;;;3.10;;
11267;SDS011;72685;47.474;9.416;2024-01-30T06:01:48;3.67;;;3.23;;
11267;SDS011;72685;47.474;9.416;2024-01-30T06:04:14;4.80;;;2.80;;
11267;SDS011;72685;47.474;9.416;2024-01-30T06:06:39;3.63;;;3.33;;
11267;SDS011;72685;47.474;9.416;2024-01-30T06:09:05;4.20;;;3.80;;
11267;SDS011;72685;47.474;9.416;2024-01-30T06:11:33;5.17;;;4.00;;
11267;SDS011;72685;47.474;9.416;2024-01-30T06:13:58;3.83;;;3.53;;
11267;SDS011;72685;47.474;9.416;2024-01-30T06:16:24;3.90;;;3.60;;
11267;SDS011;72685;47.474;9.416;2024-01-30T06:18:49;3.97;;;3.53;;
11267;SDS011;72685;47.474;9.416;2024-01-30T06:21:14;6.57;;;3.97;;
11267;SDS011;72685;47.474;9.416;2024-01-30T06:23:40;4.30;;;3.90;;
11267;SDS011;72685;47.474;9.416;2024-01-30T06:26:06;5.43;;;3.33;;
11267;SDS011;72685;47.474;9.416;2024-01-30T06:28:32;7.63;;;3.87;;
11267;SDS011;72685;47.474;9.416;2024-01-30T06:30:57;4.47;;;3.60;;
11267;SDS011;72685;47.474;9.416;2024-01-30T06:33:22;4.10;;;3.50;;
11267;SDS011;72685;47.474;9.416;2024-01-30T06:35:48;4.20;;;3.80;;
11267;SDS011;72685;47.474;9.416;2024-01-30T06:38:13;4.90;;;4.30;;
11267;SDS011;72685;47.474;9.416;2024-01-30T06:40:40;4.90;;;4.13;;
11267;SDS011;72685;47.474;9.416;2024-01-30T06:43:06;4.40;;;4.00;;
11267;SDS011;72685;47.474;9.416;2024-01-30T06:45:33;8.27;;;5.17;;
11267;SDS011;72685;47.474;9.416;2024-01-30T06:48:00;5.43;;;4.57;;
11267;SDS011;72685;47.474;9.416;2024-01-30T06:50:25;7.33;;;4.80;;
11267;SDS011;72685;47.474;9.416;2024-01-30T06:52:51;9.50;;;5.33;;
11267;SDS011;72685;47.474;9.416;2024-01-30T06:55:17;5.97;;;4.77;;
11267;SDS011;72685;47.474;9.416;2024-01-30T06:57:43;11.77;;;5.40;;
11267;SDS011;72685;47.474;9.416;2024-01-30T07:00:09;6.17;;;5.10;;
11267;SDS011;72685;47.474;9.416;2024-01-30T07:02:34;7.30;;;5.37;;
11267;SDS011;72685;47.474;9.416;2024-01-30T07:05:00;7.23;;;5.03;;
11267;SDS011;72685;47.474;9.416;2024-01-30T07:07:25;7.23;;;4.67;;
11267;SDS011;72685;47.474;9.416;2024-01-30T07:09:51;6.30;;;4.97;;
11267;SDS011;72685;47.474;9.416;2024-01-30T07:12:21;5.10;;;4.27;;
11267;SDS011;72685;47.474;9.416;2024-01-30T07:14:51;5.00;;;4.23;;
11267;SDS011;72685;47.474;9.416;2024-01-30T07:17:16;5.00;;;4.20;;
11267;SDS011;72685;47.474;9.416;2024-01-30T07:19:42;5.77;;;4.73;;
11267;SDS011;72685;47.474;9.416;2024-01-30T07:22:07;8.40;;;4.67;;
11267;SDS011;72685;47.474;9.416;2024-01-30T07:24:33;7.20;;;4.50;;
11267;SDS011;72685;47.474;9.416;2024-01-30T07:26:58;7.60;;;3.83;;
11267;SDS011;72685;47.474;9.416;2024-01-30T07:29:24;4.67;;;3.70;;
11267;SDS011;72685;47.474;9.416;2024-01-30T07:31:49;3.43;;;3.13;;
11267;SDS011;72685;47.474;9.416;2024-01-30T07:34:15;4.17;;;3.77;;
11267;SDS011;72685;47.474;9.416;2024-01-30T07:36:40;4.27;;;3.73;;
11267;SDS011;72685;47.474;9.416;2024-01-30T07:39:06;4.90;;;3.57;;
11267;SDS011;72685;47.474;9.416;2024-01-30T07:41:31;3.73;;;3.07;;
11267;SDS011;72685;47.474;9.416;2024-01-30T07:43:57;3.90;;;3.60;;
11267;SDS011;72685;47.474;9.416;2024-01-30T07:46:22;6.83;;;3.60;;
11267;SDS011;72685;47.474;9.416;2024-01-30T07:48:47;4.10;;;3.70;;
11267;SDS011;72685;47.474;9.416;2024-01-30T07:51:13;4.33;;;3.90;;
11267;SDS011;72685;47.474;9.416;2024-01-30T07:53:38;8.03;;;4.50;;
11267;SDS011;72685;47.474;9.416;2024-01-30T07:56:05;6.27;;;4.23;;
11267;SDS011;72685;47.474;9.416;2024-01-30T07:58:30;4.47;;;4.03;;
11267;SDS011;72685;47.474;9.416;2024-01-30T08:00:56;6.17;;;4.60;;
11267;SDS011;72685;47.474;9.416;2024-01-30T08:03:23;7.73;;;5.50;;
11267;SDS011;72685;47.474;9.416;2024-01-30T08:05:49;5.17;;;4.63;;
11267;SDS011;72685;47.474;9.416;2024-01-30T08:08:14;6.20;;;4.00;;
11267;SDS011;72685;47.474;9.416;2024-01-30T08:10:40;6.90;;;4.03;;
11267;SDS011;72685;47.474;9.416;2024-01-30T08:13:05;5.63;;;4.73;;
11267;SDS011;72685;47.474;9.416;2024-01-30T08:15:31;7.87;;;4.87;;
11267;SDS011;72685;47.474;9.416;2024-01-30T08:17:56;6.60;;;5.33;;
11267;SDS011;72685;47.474;9.416;2024-01-30T08:20:23;9.83;;;6.23;;
11267;SDS011;72685;47.474;9.416;2024-01-30T08:22:49;13.13;;;8.93;;
11267;SDS011;72685;47.474;9.416;2024-01-30T08:25:14;9.73;;;7.77;;
11267;SDS011;72685;47.474;9.416;2024-01-30T08:27:40;7.37;;;6.30;;
11267;SDS011;72685;47.474;9.416;2024-01-30T08:30:08;8.57;;;7.30;;
11267;SDS011;72685;47.474;9.416;2024-01-30T08:32:34;9.13;;;6.60;;
11267;SDS011;72685;47.474;9.416;2024-01-30T08:35:00;10.07;;;6.87;;
11267;SDS011;72685;47.474;9.416;2024-01-30T08:37:28;16.47;;;7.17;;
11267;SDS011;72685;47.474;9.416;2024-01-30T08:39:54;9.37;;;6.83;;
11267;SDS011;72685;47.474;9.416;2024-01-30T08:42:20;9.20;;;6.43;;
11267;SDS011;72685;47.474;9.416;2024-01-30T08:44:48;10.40;;;6.77;;
11267;SDS011;72685;47.474;9.416;2024-01-30T08:47:18;8.10;;;6.47;;
11267;SDS011;72685;47.474;9.416;2024-01-30T08:49:43;10.13;;;7.37;;
11267;SDS011;72685;47.474;9.416;2024-01-30T08:52:10;11.47;;;6.87;;
11267;SDS011;72685;47.474;9.416;2024-01-30T08:54:36;8.77;;;6.67;;
11267;SDS011;72685;47.474;9.416;2024-01-30T08:57:01;12.77;;;6.53;;
11267;SDS011;72685;47.474;9.416;2024-01-30T08:59:27;9.80;;;7.23;;
11267;SDS011;72685;47.474;9.416;2024-01-30T09:01:52;13.37;;;7.30;;
11267;SDS011;72685;47.474;9.416;2024-01-30T09:04:20;10.73;;;7.40;;
11267;SDS011;72685;47.474;9.416;2024-01-30T09:06:47;14.53;;;7.50;;
11267;SDS011;72685;47.474;9.416;2024-01-30T09:09:13;11.50;;;7.77;;
11267;SDS011;72685;47.474;9.416;2024-01-30T09:11:39;12.77;;;7.13;;
11267;SDS011;72685;47.474;9.416;2024-01-30T09:14:05;9.47;;;6.80;;
11267;SDS011;72685;47.474;9.416;2024-01-30T09:16:30;14.93;;;8.47;;
11267;SDS011;72685;47.474;9.416;2024-01-30T09:18:55;11.40;;;7.67;;
11267;SDS011;72685;47.474;9.416;2024-01-30T09:21:21;11.47;;;7.87;;
11267;SDS011;72685;47.474;9.416;2024-01-30T09:23:46;9.87;;;7.13;;
11267;SDS011;72685;47.474;9.416;2024-01-30T09:26:11;8.07;;;6.80;;
11267;SDS011;72685;47.474;9.416;2024-01-30T09:28:38;7.10;;;6.20;;
11267;SDS011;72685;47.474;9.416;2024-01-30T09:31:03;8.03;;;6.63;;
11267;SDS011;72685;47.474;9.416;2024-01-30T09:33:29;11.23;;;6.73;;
11267;SDS011;72685;47.474;9.416;2024-01-30T09:35:54;15.67;;;7.13;;
11267;SDS011;72685;47.474;9.416;2024-01-30T09:38:20;13.60;;;7.47;;
11267;SDS011;72685;47.474;9.416;2024-01-30T09:40:46;13.83;;;7.87;;
11267;SDS011;72685;47.474;9.416;2024-01-30T09:43:19;11.23;;;8.90;;
11267;SDS011;72685;47.474;9.416;2024-01-30T09:45:48;11.73;;;7.93;;
11267;SDS011;72685;47.474;9.416;2024-01-30T09:48:15;10.43;;;7.87;;
11267;SDS011;72685;47.474;9.416;2024-01-30T09:50:41;8.97;;;7.50;;
11267;SDS011;72685;47.474;9.416;2024-01-30T09:53:06;12.77;;;7.83;;
11267;SDS011;72685;47.474;9.416;2024-01-30T09:55:34;8.97;;;7.07;;
11267;SDS011;72685;47.474;9.416;2024-01-30T09:58:01;13.43;;;7.93;;
11267;SDS011;72685;47.474;9.416;2024-01-30T10:00:27;10.00;;;6.83;;
11267;SDS011;72685;47.474;9.416;2024-01-30T10:02:52;10.83;;;8.30;;
11267;SDS011;72685;47.474;9.416;2024-01-30T10:05:18;9.73;;;7.33;;
11267;SDS011;72685;47.474;9.416;2024-01-30T10:07:54;10.73;;;8.00;;
11267;SDS011;72685;47.474;9.416;2024-01-30T10:10:23;9.03;;;7.80;;
11267;SDS011;72685;47.474;9.416;2024-01-30T10:12:49;13.37;;;9.23;;
11267;SDS011;72685;47.474;9.416;2024-01-30T10:15:14;9.37;;;7.70;;
11267;SDS011;72685;47.474;9.416;2024-01-30T10:17:39;13.17;;;8.17;;
11267;SDS011;72685;47.474;9.416;2024-01-30T10:20:05;10.90;;;8.13;;
11267;SDS011;72685;47.474;9.416;2024-01-30T10:22:31;11.97;;;7.90;;
11267;SDS011;72685;47.474;9.416;2024-01-30T10:24:57;9.57;;;7.90;;
11267;SDS011;72685;47.474;9.416;2024-01-30T10:27:25;8.77;;;7.13;;
11267;SDS011;72685;47.474;9.416;2024-01-30T10:29:51;13.37;;;8.27;;
11267;SDS011;72685;47.474;9.416;2024-01-30T10:32:17;11.07;;;7.87;;
11267;SDS011;72685;47.474;9.416;2024-01-30T10:34:43;11.87;;;7.90;;
11267;SDS011;72685;47.474;9.416;2024-01-30T10:37:09;11.80;;;7.37;;
11267;SDS011;72685;47.474;9.416;2024-01-30T10:39:41;11.40;;;8.33;;
11267;SDS011;72685;47.474;9.416;2024-01-30T10:42:11;14.83;;;8.30;;
11267;SDS011;72685;47.474;9.416;2024-01-30T10:47:35;10.57;;;7.90;;
11267;SDS011;72685;47.474;9.416;2024-01-30T10:50:04;8.93;;;7.30;;
11267;SDS011;72685;47.474;9.416;2024-01-30T10:52:30;10.83;;;8.10;;
11267;SDS011;72685;47.474;9.416;2024-01-30T10:54:57;10.47;;;7.63;;
11267;SDS011;72685;47.474;9.416;2024-01-30T10:57:23;14.63;;;8.77;;
11267;SDS011;72685;47.474;9.416;2024-01-30T10:59:51;12.43;;;7.27;;
11267;SDS011;72685;47.474;9.416;2024-01-30T11:02:18;14.87;;;9.13;;
11267;SDS011;72685;47.474;9.416;2024-01-30T11:04:45;14.00;;;7.83;;
11267;SDS011;72685;47.474;9.416;2024-01-30T11:07:14;10.93;;;9.00;;
11267;SDS011;72685;47.474;9.416;2024-01-30T11:09:49;11.60;;;8.00;;
11267;SDS011;72685;47.474;9.416;2024-01-30T11:12:16;18.13;;;11.63;;
11267;SDS011;72685;47.474;9.416;2024-01-30T11:14:46;13.80;;;9.73;;
11267;SDS011;72685;47.474;9.416;2024-01-30T11:17:11;14.27;;;10.30;;
11267;SDS011;72685;47.474;9.416;2024-01-30T11:19:37;12.23;;;9.33;;
11267;SDS011;72685;47.474;9.416;2024-01-30T11:22:03;11.40;;;9.20;;
11267;SDS011;72685;47.474;9.416;2024-01-30T11:24:36;14.37;;;9.43;;
11267;SDS011;72685;47.474;9.416;2024-01-30T11:27:07;12.60;;;10.03;;
11267;SDS011;72685;47.474;9.416;2024-01-30T11:29:34;13.00;;;8.63;;
11267;SDS011;72685;47.474;9.416;2024-01-30T11:32:00;14.40;;;9.63;;
11267;SDS011;72685;47.474;9.416;2024-01-30T11:34:25;12.83;;;9.30;;
11267;SDS011;72685;47.474;9.416;2024-01-30T11:36:52;11.70;;;9.33;;
11267;SDS011;72685;47.474;9.416;2024-01-30T11:39:23;13.80;;;8.40;;
11267;SDS011;72685;47.474;9.416;2024-01-30T11:41:50;11.13;;;8.40;;
11267;SDS011;72685;47.474;9.416;2024-01-30T11:44:16;11.20;;;9.23;;
11267;SDS011;72685;47.474;9.416;2024-01-30T11:46:42;11.40;;;8.20;;
11267;SDS011;72685;47.474;9.416;2024-01-30T11:49:07;10.30;;;8.20;;
11267;SDS011;72685;47.474;9.416;2024-01-30T11:51:33;13.03;;;8.87;;
11267;SDS011;72685;47.474;9.416;2024-01-30T11:53:58;10.93;;;8.30;;
11267;SDS011;72685;47.474;9.416;2024-01-30T11:56:24;10.97;;;8.70;;
11267;SDS011;72685;47.474;9.416;2024-01-30T11:58:50;12.07;;;9.10;;
11267;SDS011;72685;47.474;9.416;2024-01-30T12:01:17;14.33;;;8.47;;
11267;SDS011;72685;47.474;9.416;2024-01-30T12:03:42;12.30;;;9.00;;
11267;SDS011;72685;47.474;9.416;2024-01-30T12:06:15;10.00;;;8.40;;
11267;SDS011;72685;47.474;9.416;2024-01-30T12:08:41;10.97;;;9.20;;
11267;SDS011;72685;47.474;9.416;2024-01-30T12:11:06;12.80;;;9.17;;
11267;SDS011;72685;47.474;9.416;2024-01-30T12:13:32;11.80;;;8.70;;
11267;SDS011;72685;47.474;9.416;2024-01-30T12:15:58;10.70;;;8.37;;
11267;SDS011;72685;47.474;9.416;2024-01-30T12:18:24;12.57;;;8.30;;
11267;SDS011;72685;47.474;9.416;2024-01-30T12:20:58;8.50;;;7.60;;
11267;SDS011;72685;47.474;9.416;2024-01-30T12:23:25;8.87;;;7.07;;
11267;SDS011;72685;47.474;9.416;2024-01-30T12:25:52;13.90;;;7.90;;
11267;SDS011;72685;47.474;9.416;2024-01-30T12:28:17;11.57;;;8.50;;
11267;SDS011;72685;47.474;9.416;2024-01-30T12:30:43;10.97;;;8.47;;
11267;SDS011;72685;47.474;9.416;2024-01-30T12:33:08;11.80;;;8.83;;
11267;SDS011;72685;47.474;9.416;2024-01-30T12:35:35;11.23;;;8.73;;
11267;SDS011;72685;47.474;9.416;2024-01-30T12:38:00;10.63;;;8.97;;
11267;SDS011;72685;47.474;9.416;2024-01-30T12:40:26;11.17;;;8.77;;
11267;SDS011;72685;47.474;9.416;2024-01-30T12:42:51;11.53;;;8.37;;
11267;SDS011;72685;47.474;9.416;2024-01-30T12:45:17;10.17;;;8.60;;
11267;SDS011;72685;47.474;9.416;2024-01-30T12:47:46;15.10;;;8.70;;
11267;SDS011;72685;47.474;9.416;2024-01-30T12:50:11;11.97;;;8.70;;
11267;SDS011;72685;47.474;9.416;2024-01-30T12:52:37;10.90;;;8.83;;
11267;SDS011;72685;47.474;9.416;2024-01-30T12:55:03;10.37;;;7.87;;
11267;SDS011;72685;47.474;9.416;2024-01-30T12:57:29;11.17;;;8.83;;
11267;SDS011;72685;47.474;9.416;2024-01-30T12:59:54;9.37;;;7.87;;
11267;SDS011;72685;47.474;9.416;2024-01-30T13:02:19;10.93;;;8.90;;
11267;SDS011;72685;47.474;9.416;2024-01-30T13:04:45;10.17;;;8.40;;
11267;SDS011;72685;47.474;9.416;2024-01-30T13:07:10;10.23;;;8.63;;
11267;SDS011;72685;47.474;9.416;2024-01-30T13:09:36;11.63;;;9.00;;
11267;SDS011;72685;47.474;9.416;2024-01-30T13:12:03;9.97;;;8.30;;
11267;SDS011;72685;47.474;9.416;2024-01-30T13:14:28;11.60;;;8.47;;
11267;SDS011;72685;47.474;9.416;2024-01-30T13:16:54;11.97;;;8.70;;
11267;SDS011;72685;47.474;9.416;2024-01-30T13:19:19;11.97;;;8.43;;
11267;SDS011;72685;47.474;9.416;2024-01-30T13:21:45;12.67;;;9.13;;
11267;SDS011;72685;47.474;9.416;2024-01-30T13:24:10;11.60;;;9.10;;
11267;SDS011;72685;47.474;9.416;2024-01-30T13:26:36;12.83;;;9.07;;
11267;SDS011;72685;47.474;9.416;2024-01-30T13:29:01;10.80;;;8.40;;
11267;SDS011;72685;47.474;9.416;2024-01-30T13:31:27;12.33;;;9.73;;
11267;SDS011;72685;47.474;9.416;2024-01-30T13:33:53;11.70;;;9.10;;
11267;SDS011;72685;47.474;9.416;2024-01-30T13:36:19;12.80;;;10.20;;
11267;SDS011;72685;47.474;9.416;2024-01-30T13:38:44;11.23;;;8.90;;
11267;SDS011;72685;47.474;9.416;2024-01-30T13:41:10;16.50;;;8.43;;
11267;SDS011;72685;47.474;9.416;2024-01-30T13:43:35;10.50;;;8.87;;
11267;SDS011;72685;47.474;9.416;2024-01-30T13:46:00;10.53;;;8.50;;
11267;SDS011;72685;47.474;9.416;2024-01-30T13:48:26;15.43;;;9.80;;
11267;SDS011;72685;47.474;9.416;2024-01-30T13:50:51;12.63;;;9.57;;
11267;SDS011;72685;47.474;9.416;2024-01-30T13:53:18;15.13;;;9.83;;
11267;SDS011;72685;47.474;9.416;2024-01-30T13:55:43;12.83;;;9.67;;
11267;SDS011;72685;47.474;9.416;2024-01-30T13:58:08;11.70;;;10.03;;
11267;SDS011;72685;47.474;9.416;2024-01-30T14:00:35;13.07;;;9.80;;
11267;SDS011;72685;47.474;9.416;2024-01-30T14:03:00;12.87;;;9.43;;
11267;SDS011;72685;47.474;9.416;2024-01-30T14:05:26;12.70;;;10.30;;
11267;SDS011;72685;47.474;9.416;2024-01-30T14:07:53;17.97;;;10.00;;
11267;SDS011;72685;47.474;9.416;2024-01-30T14:10:19;17.20;;;10.63;;
11267;SDS011;72685;47.474;9.416;2024-01-30T14:12:45;12.07;;;9.60;;
11267;SDS011;72685;47.474;9.416;2024-01-30T14:15:11;12.30;;;10.07;;
11267;SDS011;72685;47.474;9.416;2024-01-30T14:17:37;14.93;;;10.90;;
11267;SDS011;72685;47.474;9.416;2024-01-30T14:20:03;14.27;;;10.97;;
11267;SDS011;72685;47.474;9.416;2024-01-30T14:22:32;13.00;;;9.77;;
11267;SDS011;72685;47.474;9.416;2024-01-30T14:24:59;13.23;;;8.80;;
11267;SDS011;72685;47.474;9.416;2024-01-30T14:27:25;14.13;;;10.80;;
11267;SDS011;72685;47.474;9.416;2024-01-30T14:29:50;13.33;;;10.27;;
11267;SDS011;72685;47.474;9.416;2024-01-30T14:32:16;12.57;;;9.30;;
11267;SDS011;72685;47.474;9.416;2024-01-30T14:34:41;11.13;;;9.53;;
11267;SDS011;72685;47.474;9.416;2024-01-30T14:37:07;10.20;;;9.13;;
11267;SDS011;72685;47.474;9.416;2024-01-30T14:39:32;13.07;;;9.03;;